createdAt,value
2019-02-16T00:00:16.840Z,21.8
2019-02-16T00:01:06.855Z,21.8
2019-02-16T00:01:55.525Z,21.8
2019-02-16T00:02:46.762Z,21.3
2019-02-16T00:03:36.765Z,20.9
2019-02-16T00:04:25.452Z,20.6
2019-02-16T00:05:16.379Z,20.3
2019-02-16T00:06:06.458Z,20.1
2019-02-16T00:06:55.939Z,19.9
2019-02-16T00:07:46.269Z,19.8
2019-02-16T00:08:37.106Z,19.6
2019-02-16T00:09:26.430Z,19.5
2019-02-16T00:10:16.209Z,19.4
2019-02-16T00:11:05.491Z,19.3
2019-02-16T00:11:56.646Z,19.3
2019-02-16T00:12:46.645Z,19.2
2019-02-16T00:13:35.653Z,19.1
2019-02-16T00:14:26.279Z,18.9
2019-02-16T00:15:16.889Z,18.8
2019-02-16T00:16:06.389Z,18.6
2019-02-16T00:17:47.089Z,19.2
2019-02-16T00:18:36.333Z,19.7
2019-02-16T00:19:26.671Z,20.1
2019-02-16T00:20:17.153Z,20.3
2019-02-16T00:21:12.303Z,20.6
2019-02-16T00:21:57.588Z,20.9
2019-02-16T00:22:48.086Z,21
2019-02-16T00:23:37.566Z,20.8
2019-02-16T00:24:28.270Z,20.3
2019-02-16T00:25:17.753Z,19.5
2019-02-16T00:26:08.062Z,18.9
2019-02-16T00:26:57.585Z,18.1
2019-02-16T00:27:47.388Z,17.7
2019-02-16T00:28:38.542Z,17.8
2019-02-16T00:29:29.081Z,18.2
2019-02-16T00:30:18.585Z,18.9
2019-02-16T00:31:08.424Z,19.4
2019-02-16T00:31:58.803Z,19.9
2019-02-16T00:32:48.111Z,20.3
2019-02-16T00:33:37.712Z,20.5
2019-02-16T00:34:29.307Z,20.7
2019-02-16T00:35:18.720Z,20.9
2019-02-16T00:36:58.850Z,21.3
2019-02-16T00:37:49.039Z,21.4
2019-02-16T00:38:39.234Z,21.5
2019-02-16T00:39:29.328Z,21.6
2019-02-16T00:40:19.012Z,21.8
2019-02-16T00:41:09.616Z,21.9
2019-02-16T00:41:58.581Z,21.9
2019-02-16T00:42:50.083Z,21.6
2019-02-16T00:43:38.795Z,21.1
2019-02-16T00:44:31.011Z,20.7
2019-02-16T00:45:19.650Z,20.4
2019-02-16T00:46:09.668Z,20.1
2019-02-16T00:46:58.697Z,19.9
2019-02-16T00:47:50.130Z,19.8
2019-02-16T00:48:39.849Z,19.7
2019-02-16T00:49:29.441Z,19.5
2019-02-16T00:50:20.234Z,19.4
2019-02-16T00:51:19.157Z,19.3
2019-02-16T00:51:59.299Z,19.2
2019-02-16T00:52:48.460Z,19.2
2019-02-16T00:53:41.879Z,19.1
2019-02-16T00:54:30.309Z,18.9
2019-02-16T00:55:20.301Z,18.8
2019-02-16T00:56:10.074Z,18.6
2019-02-16T00:57:50.206Z,19.3
2019-02-16T00:58:40.048Z,19.7
2019-02-16T00:59:32.296Z,20.1
2019-02-16T01:00:20.953Z,20.4
2019-02-16T01:01:10.214Z,20.6
2019-02-16T01:02:00.755Z,20.8
2019-02-16T01:02:50.356Z,20.9
2019-02-16T01:03:40.038Z,21.1
2019-02-16T01:04:30.202Z,21.3
2019-02-16T01:05:20.728Z,21.4
2019-02-16T01:06:10.543Z,21.5
2019-02-16T01:07:00.314Z,21.6
2019-02-16T01:07:51.470Z,21.7
2019-02-16T01:08:40.660Z,21.8
2019-02-16T01:09:30.632Z,21.9
2019-02-16T01:10:21.585Z,21.6
2019-02-16T01:11:10.888Z,21.1
2019-02-16T01:12:00.658Z,20.7
2019-02-16T01:12:50.522Z,20.4
2019-02-16T01:13:40.787Z,20.2
2019-02-16T01:14:30.880Z,19.9
2019-02-16T01:15:19.895Z,19.8
2019-02-16T01:16:11.305Z,19.7
2019-02-16T01:17:01.583Z,19.5
2019-02-16T01:17:50.885Z,19.4
2019-02-16T01:18:41.969Z,19.3
2019-02-16T01:19:31.389Z,19.3
2019-02-16T01:20:21.534Z,19.2
2019-02-16T01:21:12.402Z,19
2019-02-16T01:22:01.576Z,18.8
2019-02-16T01:23:41.515Z,18.6
2019-02-16T01:24:31.219Z,18.8
2019-02-16T01:25:22.614Z,19.3
2019-02-16T01:26:11.554Z,19.8
2019-02-16T01:27:02.752Z,20.1
2019-02-16T01:27:52.115Z,20.4
2019-02-16T01:28:42.329Z,20.6
2019-02-16T01:29:32.106Z,20.8
2019-02-16T01:30:21.584Z,21
2019-02-16T01:32:02.330Z,21.3
2019-02-16T01:32:52.834Z,21.4
2019-02-16T01:33:43.190Z,21.4
2019-02-16T01:34:32.198Z,21.6
2019-02-16T01:35:21.911Z,21.7
2019-02-16T01:36:12.873Z,21.8
2019-02-16T01:37:03.133Z,21.9
2019-02-16T01:37:52.646Z,21.6
2019-02-16T01:39:33.124Z,20.8
2019-02-16T01:40:22.916Z,20.4
2019-02-16T01:41:12.396Z,20.2
2019-02-16T01:42:03.323Z,20
2019-02-16T01:42:52.150Z,19.8
2019-02-16T01:43:43.346Z,19.6
2019-02-16T01:44:33.173Z,19.5
2019-02-16T01:45:22.617Z,19.4
2019-02-16T01:46:13.520Z,19.3
2019-02-16T01:47:02.298Z,19.2
2019-02-16T01:47:54.423Z,19.1
2019-02-16T01:48:42.820Z,19
2019-02-16T01:49:34.021Z,18.9
2019-02-16T01:51:13.900Z,18.6
2019-02-16T01:52:53.718Z,19.2
2019-02-16T01:53:44.565Z,19.7
2019-02-16T01:54:34.637Z,20
2019-02-16T01:55:24.209Z,20.3
2019-02-16T01:56:15.037Z,20.6
2019-02-16T01:57:04.517Z,20.8
2019-02-16T01:57:54.090Z,20.9
2019-02-16T01:58:43.809Z,21.1
2019-02-16T01:59:33.882Z,21.2
2019-02-16T02:00:25.082Z,21.3
2019-02-16T02:01:14.525Z,21.4
2019-02-16T02:02:04.315Z,21.6
2019-02-16T02:02:54.151Z,21.6
2019-02-16T02:03:45.269Z,21.8
2019-02-16T02:04:34.201Z,21.8
2019-02-16T02:05:25.117Z,21.8
2019-02-16T02:06:14.046Z,21.3
2019-02-16T02:07:05.254Z,20.9
2019-02-16T02:07:55.180Z,20.5
2019-02-16T02:08:45.101Z,20.2
2019-02-16T02:09:34.833Z,20
2019-02-16T02:10:25.451Z,19.8
2019-02-16T02:11:15.839Z,19.6
2019-02-16T02:12:04.991Z,19.5
2019-02-16T02:12:55.997Z,19.4
2019-02-16T02:13:44.899Z,19.3
2019-02-16T02:14:34.764Z,19.2
2019-02-16T02:15:24.959Z,19.1
2019-02-16T02:16:15.364Z,19.1
2019-02-16T02:17:04.842Z,18.9
2019-02-16T02:17:55.951Z,18.8
2019-02-16T02:18:45.743Z,18.6
2019-02-16T02:19:35.579Z,18.6
2019-02-16T02:20:24.855Z,19.2
2019-02-16T02:21:16.094Z,19.6
2019-02-16T02:22:04.903Z,19.9
2019-02-16T02:22:55.833Z,20.3
2019-02-16T02:23:46.073Z,20.4
2019-02-16T02:24:35.708Z,20.7
2019-02-16T02:25:25.740Z,20.9
2019-02-16T02:26:15.776Z,21
2019-02-16T02:27:56.178Z,21.2
2019-02-16T02:28:45.458Z,20.8
2019-02-16T02:29:35.740Z,20.2
2019-02-16T02:30:27.355Z,19.4
2019-02-16T02:31:15.585Z,18.8
2019-02-16T02:32:06.559Z,18
2019-02-16T02:32:57.014Z,17.8
2019-02-16T02:33:47.119Z,17.8
2019-02-16T02:34:36.557Z,18.4
2019-02-16T02:35:27.244Z,19
2019-02-16T02:36:17.365Z,19.6
2019-02-16T02:37:07.082Z,19.9
2019-02-16T02:37:57.312Z,20.3
2019-02-16T02:38:47.362Z,20.5
2019-02-16T02:39:37.184Z,20.8
2019-02-16T02:40:26.768Z,20.9
2019-02-16T02:41:17.863Z,21.1
2019-02-16T02:42:07.969Z,21.3
2019-02-16T02:42:58.054Z,21.4
2019-02-16T02:43:47.468Z,21.4
2019-02-16T02:44:35.896Z,21.6
2019-02-16T02:45:27.332Z,21.7
2019-02-16T02:46:18.221Z,21.8
2019-02-16T02:47:08.011Z,21.9
2019-02-16T02:47:57.521Z,21.4
2019-02-16T02:48:46.771Z,21
2019-02-16T02:49:37.916Z,20.6
2019-02-16T02:50:27.495Z,20.3
2019-02-16T02:51:17.526Z,20.1
2019-02-16T02:52:07.790Z,19.9
2019-02-16T02:53:01.231Z,19.8
2019-02-16T02:53:48.759Z,19.6
2019-02-16T02:54:38.506Z,19.4
2019-02-16T02:55:28.984Z,19.4
2019-02-16T02:56:18.731Z,19.3
2019-02-16T02:57:07.723Z,19.2
2019-02-16T02:57:58.995Z,19.1
2019-02-16T02:58:48.719Z,18.9
2019-02-16T02:59:37.471Z,18.8
2019-02-16T03:00:28.671Z,18.6
2019-02-16T03:02:08.535Z,19.3
2019-02-16T03:02:59.371Z,19.7
2019-02-16T03:03:49.111Z,20
2019-02-16T03:04:38.893Z,20.3
2019-02-16T03:08:12.206Z,21.1
2019-02-16T03:09:01.622Z,21.2
2019-02-16T03:09:52.121Z,21.3
2019-02-16T03:10:41.785Z,21.4
2019-02-16T03:11:31.800Z,21.5
2019-02-16T03:12:21.875Z,21.6
2019-02-16T03:13:12.190Z,21.7
2019-02-16T03:14:02.243Z,21.8
2019-02-16T03:14:53.342Z,21.8
2019-02-16T03:15:42.646Z,21.3
2019-02-16T03:16:34.052Z,20.9
2019-02-16T03:17:23.087Z,20.6
2019-02-16T03:18:12.327Z,20.3
2019-02-16T03:19:02.309Z,20.1
2019-02-16T03:19:52.421Z,19.8
2019-02-16T03:20:42.193Z,19.7
2019-02-16T03:21:32.285Z,19.6
2019-02-16T03:22:22.544Z,19.4
2019-02-16T03:23:12.098Z,19.3
2019-02-16T03:24:03.584Z,19.2
2019-02-16T03:24:53.392Z,19.1
2019-02-16T03:25:42.770Z,19.1
2019-02-16T03:26:32.482Z,18.9
2019-02-16T03:27:23.507Z,18.8
2019-02-16T03:29:03.429Z,18.6
2019-02-16T03:29:54.171Z,19.1
2019-02-16T03:30:43.986Z,19.6
2019-02-16T03:31:33.813Z,19.9
2019-02-16T03:32:23.499Z,20.2
2019-02-16T03:33:14.095Z,20.4
2019-02-16T03:34:03.432Z,20.6
2019-02-16T03:34:54.412Z,20.8
2019-02-16T03:35:45.116Z,20.9
2019-02-16T03:37:23.027Z,21.2
2019-02-16T03:38:13.974Z,21.3
2019-02-16T03:39:03.224Z,21.4
2019-02-16T03:39:53.839Z,21.5
2019-02-16T03:40:43.875Z,21.6
2019-02-16T03:41:33.721Z,21.7
2019-02-16T03:42:23.650Z,21.8
2019-02-16T03:43:13.688Z,21.7
2019-02-16T03:44:04.953Z,21.2
2019-02-16T03:44:54.875Z,20.7
2019-02-16T03:45:44.191Z,20.4
2019-02-16T03:46:34.251Z,20.1
2019-02-16T03:47:24.523Z,19.9
2019-02-16T03:48:14.056Z,19.8
2019-02-16T03:49:03.864Z,19.6
2019-02-16T03:49:54.120Z,19.5
2019-02-16T03:50:44.047Z,19.3
2019-02-16T03:51:33.198Z,19.3
2019-02-16T03:52:23.885Z,19.2
2019-02-16T03:53:13.585Z,19.1
2019-02-16T03:54:04.280Z,19
2019-02-16T03:54:54.815Z,18.9
2019-02-16T03:55:44.156Z,18.8
2019-02-16T03:56:35.215Z,18.6
2019-02-16T03:57:23.883Z,18.9
2019-02-16T03:58:14.779Z,19.4
2019-02-16T03:59:04.856Z,19.8
2019-02-16T03:59:54.659Z,20.1
2019-02-16T04:00:45.459Z,20.4
2019-02-16T04:01:34.999Z,20.6
2019-02-16T04:02:25.027Z,20.8
2019-02-16T04:03:15.411Z,20.9
2019-02-16T04:04:06.075Z,21
2019-02-16T04:05:46.052Z,21.3
2019-02-16T04:06:35.651Z,21.3
2019-02-16T04:07:25.666Z,21.4
2019-02-16T04:08:15.249Z,21.6
2019-02-16T04:09:05.595Z,21.6
2019-02-16T04:09:54.686Z,21.8
2019-02-16T04:10:45.167Z,21.8
2019-02-16T04:11:35.035Z,21.7
2019-02-16T04:12:26.123Z,21.3
2019-02-16T04:13:16.299Z,20.8
2019-02-16T04:14:05.866Z,20.4
2019-02-16T04:14:56.251Z,20.2
2019-02-16T04:15:47.096Z,19.9
2019-02-16T04:16:36.337Z,19.8
2019-02-16T04:17:25.805Z,19.6
2019-02-16T04:18:15.098Z,19.4
2019-02-16T04:19:04.923Z,19.4
2019-02-16T04:19:55.986Z,19.3
2019-02-16T04:20:46.275Z,19.1
2019-02-16T04:21:36.664Z,19.1
2019-02-16T04:22:32.293Z,19
2019-02-16T04:23:17.556Z,18.8
2019-02-16T04:24:56.591Z,18.6
2019-02-16T04:25:47.654Z,18.8
2019-02-16T04:26:36.663Z,19.3
2019-02-16T04:27:27.268Z,19.7
2019-02-16T04:28:16.618Z,20
2019-02-16T04:29:07.966Z,20.3
2019-02-16T04:29:56.858Z,20.4
2019-02-16T04:30:47.679Z,20.7
2019-02-16T04:31:36.760Z,20.8
2019-02-16T04:32:27.461Z,20.4
2019-02-16T04:33:17.721Z,19.8
2019-02-16T04:34:07.726Z,19.1
2019-02-16T04:34:57.811Z,18.5
2019-02-16T04:35:48.365Z,17.6
2019-02-16T04:36:37.311Z,17.4
2019-02-16T04:37:28.202Z,17.4
2019-02-16T04:38:17.447Z,18
2019-02-16T04:39:07.871Z,18.6
2019-02-16T04:39:58.087Z,19.2
2019-02-16T04:40:48.161Z,19.6
2019-02-16T04:41:38.077Z,19.9
2019-02-16T04:42:27.971Z,20.3
2019-02-16T04:43:18.313Z,20.4
2019-02-16T04:44:08.404Z,20.6
2019-02-16T04:44:57.892Z,20.8
2019-02-16T04:45:49.020Z,20.9
2019-02-16T04:46:38.595Z,21.1
2019-02-16T04:47:28.034Z,21.2
2019-02-16T04:48:18.978Z,21.3
2019-02-16T04:49:07.965Z,21.4
2019-02-16T04:49:58.509Z,21.5
2019-02-16T04:50:49.339Z,21.6
2019-02-16T04:51:38.707Z,21.6
2019-02-16T04:52:39.427Z,21.8
2019-02-16T04:53:19.832Z,21.8
2019-02-16T04:54:09.377Z,21.7
2019-02-16T04:54:58.839Z,21.2
2019-02-16T04:55:49.540Z,20.8
2019-02-16T04:56:39.501Z,20.4
2019-02-16T04:57:29.019Z,20.1
2019-02-16T04:58:19.642Z,19.9
2019-02-16T04:59:09.859Z,19.8
2019-02-16T04:59:59.656Z,19.6
2019-02-16T05:00:50.162Z,19.5
2019-02-16T05:01:38.805Z,19.3
2019-02-16T05:02:29.641Z,19.3
2019-02-16T05:03:19.429Z,19.1
2019-02-16T05:04:08.994Z,19.1
2019-02-16T05:04:59.813Z,18.9
2019-02-16T05:05:49.006Z,18.8
2019-02-16T05:06:39.991Z,18.6
2019-02-16T05:07:30.333Z,18.6
2019-02-16T05:08:19.773Z,18.9
2019-02-16T05:09:09.318Z,19.4
2019-02-16T05:10:00.606Z,19.8
2019-02-16T05:10:50.983Z,20.1
2019-02-16T05:11:40.373Z,20.3
2019-02-16T05:12:30.005Z,20.4
2019-02-16T05:13:20.938Z,20.6
2019-02-16T05:14:10.713Z,20.8
2019-02-16T05:14:59.975Z,20.9
2019-02-16T05:15:50.480Z,21
2019-02-16T05:17:30.748Z,21.2
2019-02-16T05:18:20.217Z,21.3
2019-02-16T05:19:11.368Z,21.3
2019-02-16T05:20:00.536Z,21.4
2019-02-16T05:20:50.906Z,21.5
2019-02-16T05:21:40.717Z,21.6
2019-02-16T05:22:30.734Z,21.6
2019-02-16T05:23:21.348Z,21.6
2019-02-16T05:24:11.945Z,21.7
2019-02-16T05:25:01.152Z,21.3
2019-02-16T05:25:53.419Z,20.8
2019-02-16T05:26:41.570Z,20.4
2019-02-16T05:27:30.865Z,20.1
2019-02-16T05:28:20.600Z,19.9
2019-02-16T05:29:10.984Z,19.7
2019-02-16T05:30:01.572Z,19.5
2019-02-16T05:30:51.660Z,19.4
2019-02-16T05:31:41.101Z,19.3
2019-02-16T05:32:31.947Z,19.1
2019-02-16T05:33:21.900Z,19.1
2019-02-16T05:34:11.364Z,19
2019-02-16T05:35:02.310Z,18.9
2019-02-16T05:35:51.762Z,18.8
2019-02-16T05:36:42.279Z,18.6
2019-02-16T05:37:34.475Z,18.5
2019-02-16T05:38:21.275Z,18.8
2019-02-16T05:39:11.894Z,19.3
2019-02-16T05:40:02.302Z,19.6
2019-02-16T05:40:52.338Z,19.9
2019-02-16T05:41:42.090Z,20.1
2019-02-16T05:42:32.642Z,20.4
2019-02-16T05:43:22.817Z,20.5
2019-02-16T05:44:12.184Z,20.6
2019-02-16T05:45:02.508Z,20.8
2019-02-16T05:45:52.456Z,20.9
2019-02-16T05:46:42.643Z,21
2019-02-16T05:48:23.479Z,21.2
2019-02-16T05:49:13.076Z,21.3
2019-02-16T05:50:02.621Z,21.4
2019-02-16T05:50:53.779Z,21.4
2019-02-16T05:51:43.311Z,21.5
2019-02-16T05:52:33.341Z,21.6
2019-02-16T05:53:25.421Z,21.6
2019-02-16T05:54:12.901Z,21.6
2019-02-16T05:55:03.169Z,21.6
2019-02-16T05:55:52.042Z,21
2019-02-16T05:56:43.593Z,20.6
2019-02-16T05:57:32.605Z,20.3
2019-02-16T05:58:23.147Z,20
2019-02-16T05:59:15.770Z,19.8
2019-02-16T06:00:03.591Z,19.6
2019-02-16T06:00:53.357Z,19.4
2019-02-16T06:01:53.202Z,19.3
2019-02-16T06:02:33.705Z,19.2
2019-02-16T06:03:23.575Z,19.1
2019-02-16T06:06:11.613Z,18.8
2019-02-16T06:07:51.567Z,18.5
2019-02-16T06:08:41.922Z,18.4
2019-02-16T06:09:32.149Z,18.9
2019-02-16T06:10:21.958Z,19.3
2019-02-16T06:11:14.339Z,19.6
2019-02-16T06:12:01.376Z,19.9
2019-02-16T06:12:51.692Z,20.1
2019-02-16T06:13:42.004Z,20.3
2019-02-16T06:14:31.761Z,20.5
2019-02-16T06:15:22.008Z,20.6
2019-02-16T06:16:12.301Z,20.8
2019-02-16T06:17:01.109Z,20.9
2019-02-16T06:17:52.375Z,21
2019-02-16T06:18:41.439Z,21.1
2019-02-16T06:19:32.223Z,21.2
2019-02-16T06:20:21.750Z,20.8
2019-02-16T06:21:13.295Z,20.3
2019-02-16T06:22:01.835Z,19.5
2019-02-16T06:22:52.716Z,19
2019-02-16T06:23:42.280Z,18.2
2019-02-16T06:24:33.278Z,17.6
2019-02-16T06:25:22.894Z,17.3
2019-02-16T06:26:12.746Z,17.3
2019-02-16T06:27:02.280Z,17.8
2019-02-16T06:27:53.545Z,18.4
2019-02-16T06:28:43.901Z,19.1
2019-02-16T06:29:32.939Z,19.6
2019-02-16T06:30:23.292Z,19.9
2019-02-16T06:31:13.922Z,20.2
2019-02-16T06:32:03.930Z,20.4
2019-02-16T06:32:54.298Z,20.6
2019-02-16T06:33:43.352Z,20.8
2019-02-16T06:34:35.825Z,20.9
2019-02-16T06:35:23.076Z,21.1
2019-02-16T06:36:12.329Z,21.2
2019-02-16T06:37:04.027Z,21.3
2019-02-16T06:37:53.489Z,21.4
2019-02-16T06:38:44.129Z,21.5
2019-02-16T06:39:34.625Z,21.6
2019-02-16T06:40:23.175Z,21.7
2019-02-16T06:41:14.112Z,21.8
2019-02-16T06:42:04.161Z,21.4
2019-02-16T06:42:54.471Z,20.9
2019-02-16T06:43:43.764Z,20.5
2019-02-16T06:44:34.538Z,20.2
2019-02-16T06:45:24.012Z,19.9
2019-02-16T06:46:14.376Z,19.8
2019-02-16T06:47:04.167Z,19.6
2019-02-16T06:47:53.915Z,19.4
2019-02-16T06:48:45.118Z,19.3
2019-02-16T06:49:34.145Z,19.2
2019-02-16T06:50:24.353Z,19.1
2019-02-16T06:51:16.853Z,19.1
2019-02-16T06:52:04.233Z,18.9
2019-02-16T06:52:54.863Z,18.8
2019-02-16T06:53:44.870Z,18.6
2019-02-16T06:54:34.964Z,18.4
2019-02-16T06:55:25.023Z,18.9
2019-02-16T06:56:14.760Z,19.4
2019-02-16T06:57:05.943Z,19.8
2019-02-16T06:57:55.160Z,20.1
2019-02-16T06:58:45.810Z,20.3
2019-02-16T06:59:35.844Z,20.4
2019-02-16T07:00:25.461Z,20
2019-02-16T07:01:15.135Z,19.6
2019-02-16T07:02:06.298Z,19.4
2019-02-16T07:02:55.575Z,19.1
2019-02-16T07:03:45.628Z,18.9
2019-02-16T07:06:11.821Z,18.6
2019-02-16T07:07:01.082Z,18.4
2019-02-16T07:07:51.967Z,18.2
2019-02-16T07:08:41.530Z,18.1
2019-02-16T07:09:32.347Z,18
2019-02-16T07:10:21.893Z,18.1
2019-02-16T07:11:11.452Z,17.9
2019-02-16T07:12:02.002Z,17.9
2019-02-16T07:12:52.277Z,17.8
2019-02-16T07:13:41.819Z,17.7
2019-02-16T07:14:33.868Z,17.6
2019-02-16T07:15:22.245Z,17.5
2019-02-16T07:16:12.139Z,17.4
2019-02-16T07:17:02.602Z,17.5
2019-02-16T07:17:52.448Z,18.1
2019-02-16T07:19:32.499Z,19.1
2019-02-16T07:20:22.041Z,19.6
2019-02-16T07:21:13.159Z,19.9
2019-02-16T07:22:01.821Z,19.6
2019-02-16T07:22:52.446Z,19.4
2019-02-16T07:23:43.216Z,19.3
2019-02-16T07:24:33.267Z,19.1
2019-02-16T07:25:22.709Z,18.9
2019-02-16T07:26:14.033Z,18.8
2019-02-16T07:27:52.577Z,18.6
2019-02-16T07:28:42.853Z,18.5
2019-02-16T07:29:33.506Z,18.4
2019-02-16T07:30:23.335Z,18.4
2019-02-16T07:31:12.901Z,18.4
2019-02-16T07:32:04.025Z,18.3
2019-02-16T07:32:53.197Z,18.1
2019-02-16T07:33:43.790Z,18.1
2019-02-16T07:34:33.066Z,17.9
2019-02-16T07:35:23.661Z,17.9
2019-02-16T07:36:14.185Z,17.8
2019-02-16T07:37:02.856Z,17.8
2019-02-16T07:37:54.149Z,17.6
2019-02-16T07:38:44.160Z,17.6
2019-02-16T07:39:33.683Z,17.6
2019-02-16T07:40:23.445Z,18
2019-02-16T07:41:14.015Z,18.6
2019-02-16T07:42:05.858Z,19.1
2019-02-16T07:42:53.933Z,19.6
2019-02-16T07:43:43.359Z,19.9
2019-02-16T07:44:33.718Z,19.8
2019-02-16T07:45:24.369Z,19.5
2019-02-16T07:46:14.704Z,19.3
2019-02-16T07:47:04.403Z,19.2
2019-02-16T07:47:54.186Z,19
2019-02-16T07:48:44.498Z,18.9
2019-02-16T07:49:34.376Z,18.8
2019-02-16T07:51:14.726Z,18.6
2019-02-16T07:52:04.756Z,18.4
2019-02-16T07:52:54.738Z,18.4
2019-02-16T07:53:44.493Z,18.3
2019-02-16T07:54:34.928Z,18.3
2019-02-16T07:55:27.396Z,18.2
2019-02-16T07:56:15.043Z,18.1
2019-02-16T07:57:04.506Z,18
2019-02-16T07:57:54.815Z,17.9
2019-02-16T07:58:44.848Z,17.8
2019-02-16T07:59:35.210Z,17.8
2019-02-16T08:00:25.254Z,17.7
2019-02-16T08:01:15.412Z,17.6
2019-02-16T08:02:04.923Z,17.6
2019-02-16T08:02:55.464Z,18.1
2019-02-16T08:04:35.950Z,19.2
2019-02-16T08:05:25.665Z,19.6
2019-02-16T08:06:15.190Z,20
2019-02-16T08:07:05.545Z,19.9
2019-02-16T08:07:55.267Z,19.6
2019-02-16T08:08:45.590Z,19.4
2019-02-16T08:09:36.207Z,19.2
2019-02-16T08:10:25.682Z,19.1
2019-02-16T08:11:16.099Z,18.9
2019-02-16T08:12:06.319Z,18.8
2019-02-16T08:13:46.145Z,18.6
2019-02-16T08:14:35.692Z,18.5
2019-02-16T08:15:26.544Z,18.4
2019-02-16T08:16:15.806Z,18.3
2019-02-16T08:17:06.454Z,18.3
2019-02-16T08:17:55.414Z,18.3
2019-02-16T08:18:47.099Z,18.2
2019-02-16T08:19:36.312Z,18.1
2019-02-16T08:20:27.016Z,18
2019-02-16T08:21:17.024Z,17.9
2019-02-16T08:22:06.534Z,17.8
2019-02-16T08:22:56.596Z,17.8
2019-02-16T08:23:47.743Z,17.6
2019-02-16T08:24:38.678Z,17.6
2019-02-16T08:25:26.484Z,17.9
2019-02-16T08:26:16.472Z,18.5
2019-02-16T08:27:06.804Z,19.1
2019-02-16T08:27:56.949Z,19.5
2019-02-16T08:28:47.222Z,19.9
2019-02-16T08:29:37.246Z,19.9
2019-02-16T08:30:26.836Z,19.7
2019-02-16T08:31:17.406Z,19.4
2019-02-16T08:32:07.458Z,19.3
2019-02-16T08:32:56.346Z,19.1
2019-02-16T08:33:47.591Z,18.9
2019-02-16T08:34:37.323Z,18.8
2019-02-16T08:36:16.618Z,18.6
2019-02-16T08:37:08.363Z,18.5
2019-02-16T08:37:57.965Z,18.4
2019-02-16T08:38:47.666Z,18.3
2019-02-16T08:39:37.988Z,18.3
2019-02-16T08:40:28.323Z,18.1
2019-02-16T08:41:17.555Z,18
2019-02-16T08:42:08.667Z,17.9
2019-02-16T08:42:58.490Z,17.8
2019-02-16T08:43:47.747Z,17.8
2019-02-16T08:44:38.287Z,17.6
2019-02-16T08:45:28.614Z,17.5
2019-02-16T08:46:18.995Z,17.5
2019-02-16T08:47:07.922Z,17.9
2019-02-16T08:47:58.815Z,18.6
2019-02-16T08:48:48.296Z,19.1
2019-02-16T08:49:38.052Z,19.6
2019-02-16T08:50:31.072Z,19.9
2019-02-16T08:51:17.997Z,19.8
2019-02-16T08:52:08.598Z,19.6
2019-02-16T08:52:58.073Z,19.4
2019-02-16T08:53:58.382Z,19.2
2019-02-16T08:54:38.997Z,19.1
2019-02-16T08:55:29.877Z,18.9
2019-02-16T08:56:19.158Z,18.8
2019-02-16T08:57:08.649Z,18.8
2019-02-16T08:57:59.781Z,18.6
2019-02-16T08:58:49.652Z,18.5
2019-02-16T08:59:39.086Z,18.4
2019-02-16T09:00:29.367Z,18.3
2019-02-16T09:01:18.129Z,18.2
2019-02-16T09:02:08.799Z,18.2
2019-02-16T09:02:59.841Z,18.1
2019-02-16T09:03:49.139Z,18
2019-02-16T09:04:39.466Z,17.9
2019-02-16T09:05:28.896Z,17.9
2019-02-16T09:06:20.344Z,18.1
2019-02-16T09:08:00.494Z,19.2
2019-02-16T09:08:50.006Z,19.7
2019-02-16T09:09:40.074Z,20.1
2019-02-16T09:10:30.357Z,20.3
2019-02-16T09:11:20.681Z,20.4
2019-02-16T09:12:12.450Z,20.6
2019-02-16T09:13:00.843Z,20.7
2019-02-16T09:13:50.598Z,20.8
2019-02-16T09:14:40.208Z,20.9
2019-02-16T09:15:29.845Z,20.5
2019-02-16T09:16:20.318Z,20.1
2019-02-16T09:17:13.229Z,19.6
2019-02-16T09:18:00.918Z,19.3
2019-02-16T09:18:50.941Z,19.1
2019-02-16T09:19:39.363Z,18.9
2019-02-16T09:20:31.371Z,18.8
2019-02-16T09:21:23.706Z,18.6
2019-02-16T09:22:11.172Z,18.4
2019-02-16T09:23:00.462Z,18.4
2019-02-16T09:24:00.076Z,18.3
2019-02-16T09:24:41.600Z,18.2
2019-02-16T09:25:30.100Z,18.1
2019-02-16T09:26:20.657Z,18
2019-02-16T09:27:12.703Z,17.9
2019-02-16T09:28:01.847Z,17.8
2019-02-16T09:28:51.950Z,17.8
2019-02-16T09:29:40.440Z,17.7
2019-02-16T09:30:31.207Z,17.8
2019-02-16T09:31:22.127Z,18.3
2019-02-16T09:32:13.693Z,18.9
2019-02-16T09:33:01.367Z,19.5
2019-02-16T09:33:51.154Z,19.9
2019-02-16T09:34:41.742Z,20.3
2019-02-16T09:35:31.779Z,20.4
2019-02-16T09:36:21.312Z,20.6
2019-02-16T09:37:11.978Z,20.7
2019-02-16T09:38:02.504Z,20.8
2019-02-16T09:38:51.294Z,20.7
2019-02-16T09:39:42.672Z,20.3
2019-02-16T09:40:31.815Z,19.9
2019-02-16T09:41:21.970Z,19.5
2019-02-16T09:42:11.719Z,19.3
2019-02-16T09:43:04.160Z,19.1
2019-02-16T09:43:52.646Z,18.9
2019-02-16T09:44:42.466Z,18.8
2019-02-16T09:45:32.227Z,18.6
2019-02-16T09:46:23.396Z,18.5
2019-02-16T09:47:12.694Z,18.4
2019-02-16T09:48:16.999Z,18.4
2019-02-16T09:48:52.137Z,18.2
2019-02-16T09:49:43.586Z,18.1
2019-02-16T09:50:35.881Z,18.1
2019-02-16T09:51:22.381Z,17.9
2019-02-16T09:52:13.243Z,17.9
2019-02-16T09:53:02.701Z,17.8
2019-02-16T09:53:53.318Z,17.8
2019-02-16T09:54:43.658Z,17.8
2019-02-16T09:55:32.116Z,18.3
2019-02-16T09:56:22.981Z,18.9
2019-02-16T09:57:12.731Z,19.4
2019-02-16T09:58:03.071Z,19.8
2019-02-16T09:58:52.541Z,20.1
2019-02-16T09:59:43.476Z,20.3
2019-02-16T10:00:33.291Z,20.6
2019-02-16T10:01:23.283Z,20.7
2019-02-16T10:02:13.613Z,20.9
2019-02-16T10:03:03.108Z,21.1
2019-02-16T10:03:53.712Z,20.8
2019-02-16T10:04:45.838Z,20.3
2019-02-16T10:07:11.480Z,19.4
2019-02-16T10:08:01.437Z,19.1
2019-02-16T10:08:52.120Z,19
2019-02-16T10:09:41.835Z,18.8
2019-02-16T10:11:21.163Z,18.6
2019-02-16T10:12:12.325Z,18.4
2019-02-16T10:13:03.887Z,18.4
2019-02-16T10:13:51.914Z,18.3
2019-02-16T10:14:41.089Z,18.2
2019-02-16T10:15:31.742Z,18.1
2019-02-16T10:16:22.649Z,18
2019-02-16T10:17:14.960Z,17.9
2019-02-16T10:18:01.868Z,17.9
2019-02-16T10:18:52.758Z,17.8
2019-02-16T10:19:41.402Z,17.8
2019-02-16T10:20:32.564Z,18.1
2019-02-16T10:21:22.965Z,18.8
2019-02-16T10:22:11.917Z,19.4
2019-02-16T10:23:02.579Z,19.8
2019-02-16T10:23:52.809Z,20.1
2019-02-16T10:24:42.034Z,20.3
2019-02-16T10:25:32.418Z,20.6
2019-02-16T10:26:22.138Z,20.7
2019-02-16T10:27:12.227Z,20.9
2019-02-16T10:28:03.113Z,21.1
2019-02-16T10:28:53.721Z,20.9
2019-02-16T10:29:42.364Z,20.4
2019-02-16T10:30:33.069Z,20
2019-02-16T10:31:23.081Z,19.7
2019-02-16T10:32:13.521Z,19.4
2019-02-16T10:33:02.967Z,19.3
2019-02-16T10:33:52.724Z,19.1
2019-02-16T10:34:43.576Z,18.9
2019-02-16T10:35:33.641Z,18.8
2019-02-16T10:36:23.184Z,18.6
2019-02-16T10:37:12.627Z,18.5
2019-02-16T10:38:04.401Z,18.4
2019-02-16T10:38:53.294Z,18.2
2019-02-16T10:39:44.181Z,18.1
2019-02-16T10:40:33.418Z,18.1
2019-02-16T10:41:23.445Z,18
2019-02-16T10:42:13.545Z,17.9
2019-02-16T10:43:02.787Z,17.9
2019-02-16T10:43:52.883Z,17.9
2019-02-16T10:44:43.683Z,17.9
2019-02-16T10:45:34.030Z,18.4
2019-02-16T10:46:23.845Z,19.1
2019-02-16T10:47:14.160Z,19.7
2019-02-16T10:48:04.740Z,20.1
2019-02-16T10:48:54.840Z,20.4
2019-02-16T10:49:44.152Z,20.6
2019-02-16T10:50:33.822Z,20.8
2019-02-16T10:51:24.142Z,20.9
2019-02-16T10:53:03.854Z,21.2
2019-02-16T10:53:54.331Z,20.6
2019-02-16T10:54:45.219Z,20.2
2019-02-16T10:55:34.732Z,19.8
2019-02-16T10:56:25.057Z,19.5
2019-02-16T10:57:15.758Z,19.3
2019-02-16T10:58:05.224Z,19.2
2019-02-16T10:58:54.414Z,19.1
2019-02-16T10:59:48.072Z,19
2019-02-16T11:00:34.234Z,18.8
2019-02-16T11:02:17.362Z,18.6
2019-02-16T11:03:05.309Z,18.4
2019-02-16T11:03:54.527Z,18.3
2019-02-16T11:04:46.899Z,18.3
2019-02-16T11:05:35.544Z,18.2
2019-02-16T11:06:25.204Z,18.1
2019-02-16T11:07:17.840Z,18.1
2019-02-16T11:08:06.229Z,17.9
2019-02-16T11:08:55.146Z,17.9
2019-02-16T11:09:45.240Z,18
2019-02-16T11:11:25.910Z,19.3
2019-02-16T11:12:16.155Z,19.8
2019-02-16T11:13:05.944Z,20.3
2019-02-16T11:13:54.583Z,20.2
2019-02-16T11:14:45.813Z,19.9
2019-02-16T11:15:37.506Z,19.7
2019-02-16T11:16:26.706Z,19.5
2019-02-16T11:17:16.207Z,19.4
2019-02-16T11:18:06.056Z,19.3
2019-02-16T11:18:56.386Z,19.1
2019-02-16T11:19:46.395Z,19
2019-02-16T11:20:35.760Z,18.9
2019-02-16T11:21:26.178Z,18.8
2019-02-16T11:23:05.855Z,18.6
2019-02-16T11:23:56.145Z,18.6
2019-02-16T11:24:46.718Z,18.5
2019-02-16T11:25:36.523Z,18.4
2019-02-16T11:26:26.575Z,18.6
2019-02-16T11:27:16.348Z,19.3
2019-02-16T11:28:06.135Z,19.8
2019-02-16T11:28:57.630Z,20.2
2019-02-16T11:29:47.095Z,20.6
2019-02-16T11:30:37.442Z,20.8
2019-02-16T11:31:26.964Z,20.9
2019-02-16T11:32:17.866Z,21.1
2019-02-16T11:33:07.640Z,21.3
2019-02-16T11:33:57.375Z,20.9
2019-02-16T11:34:47.700Z,20.5
2019-02-16T11:35:36.130Z,20.1
2019-02-16T11:36:27.847Z,19.8
2019-02-16T11:37:17.619Z,19.5
2019-02-16T11:38:07.972Z,19.3
2019-02-16T11:38:58.327Z,19.1
2019-02-16T11:39:47.192Z,19
2019-02-16T11:40:37.062Z,18.9